createdAt,value
2022-12-20T00:01:24.364Z,13.90
2022-12-20T00:03:52.415Z,14.23
2022-12-20T00:06:19.670Z,15.57
2022-12-20T00:08:46.791Z,14.93
2022-12-20T00:11:15.567Z,13.15
2022-12-20T00:13:42.180Z,11.10
2022-12-20T00:16:12.965Z,11.98
2022-12-20T00:18:41.097Z,11.98
2022-12-20T00:21:10.885Z,13.23
2022-12-20T00:23:38.209Z,13.50
2022-12-20T00:26:10.360Z,14.20
2022-12-20T00:28:38.514Z,14.52
2022-12-20T00:31:06.095Z,13.65
2022-12-20T00:33:33.772Z,14.55
2022-12-20T00:36:00.423Z,14.10
2022-12-20T00:38:27.521Z,15.18
2022-12-20T00:41:24.751Z,15.90
2022-12-20T00:43:52.196Z,14.30
2022-12-20T00:46:20.575Z,14.88
2022-12-20T00:48:47.775Z,15.02
2022-12-20T00:51:17.044Z,14.77
2022-12-20T00:53:44.604Z,13.05
2022-12-20T00:56:11.549Z,13.50
2022-12-20T00:58:40.741Z,14.63
2022-12-20T01:01:15.458Z,14.95
2022-12-20T01:03:42.619Z,16.60
2022-12-20T01:06:10.731Z,18.73
2022-12-20T01:08:37.499Z,17.95
2022-12-20T01:11:07.840Z,16.63
2022-12-20T01:13:37.779Z,16.83
2022-12-20T01:16:10.667Z,17.02
2022-12-20T01:18:37.371Z,17.75
2022-12-20T01:21:06.087Z,16.42
2022-12-20T01:23:32.980Z,18.92
2022-12-20T01:26:04.917Z,18.85
2022-12-20T01:28:32.398Z,17.90
2022-12-20T01:30:59.099Z,18.00
2022-12-20T01:33:25.770Z,17.98
2022-12-20T01:36:00.427Z,18.90
2022-12-20T01:38:27.760Z,18.98
2022-12-20T01:40:55.571Z,18.65
2022-12-20T01:43:22.488Z,17.90
2022-12-20T01:45:49.353Z,17.83
2022-12-20T01:48:25.743Z,17.33
2022-12-20T01:50:53.209Z,16.52
2022-12-20T01:53:22.780Z,18.05
2022-12-20T01:55:49.624Z,16.13
2022-12-20T01:58:19.263Z,15.48
2022-12-20T02:00:46.260Z,15.75
2022-12-20T02:03:14.920Z,15.20
2022-12-20T02:05:45.632Z,15.15
2022-12-20T02:08:15.655Z,16.88
2022-12-20T02:10:54.777Z,16.25
2022-12-20T02:13:30.129Z,16.08
2022-12-20T02:15:58.340Z,14.07
2022-12-20T02:18:47.590Z,15.40
2022-12-20T02:21:47.677Z,14.55
2022-12-20T02:24:28.657Z,13.82
2022-12-20T02:27:19.916Z,14.55
2022-12-20T02:30:10.355Z,14.23
2022-12-20T02:32:42.598Z,14.60
2022-12-20T02:35:10.587Z,17.83
2022-12-20T02:37:37.286Z,16.25
2022-12-20T02:40:05.261Z,16.50
2022-12-20T02:42:33.243Z,16.80
2022-12-20T02:45:17.941Z,16.08
2022-12-20T02:48:25.399Z,12.80
2022-12-20T02:50:54.176Z,14.82
2022-12-20T02:53:22.260Z,13.73
2022-12-20T02:55:56.919Z,14.57
2022-12-20T03:01:55.241Z,14.25
2022-12-20T03:04:28.513Z,14.23
2022-12-20T03:07:03.525Z,14.00
2022-12-20T03:09:31.655Z,15.40
2022-12-20T03:11:58.440Z,15.35
2022-12-20T03:14:26.139Z,15.25
2022-12-20T03:16:52.989Z,14.68
2022-12-20T03:19:19.674Z,14.65
2022-12-20T03:21:46.750Z,15.50
2022-12-20T03:24:14.597Z,13.95
2022-12-20T03:26:41.921Z,15.75
2022-12-20T03:29:08.708Z,14.75
2022-12-20T03:31:35.948Z,14.73
2022-12-20T03:34:02.868Z,13.20
2022-12-20T03:36:29.584Z,13.95
2022-12-20T03:38:56.666Z,15.43
2022-12-20T03:41:24.440Z,14.93
2022-12-20T03:43:52.982Z,13.88
2022-12-20T03:46:19.755Z,14.00
2022-12-20T03:48:46.457Z,14.48
2022-12-20T03:51:13.097Z,17.52
2022-12-20T03:53:39.707Z,14.18
2022-12-20T03:56:06.699Z,13.90
2022-12-20T03:58:33.307Z,14.15
2022-12-20T04:01:00.036Z,13.98
2022-12-20T04:03:26.924Z,21.08
2022-12-20T04:05:53.565Z,16.65
2022-12-20T04:08:20.155Z,15.73
2022-12-20T04:11:05.500Z,14.85
2022-12-20T04:13:32.154Z,14.02
2022-12-20T04:16:00.829Z,15.23
2022-12-20T04:18:27.964Z,17.30
2022-12-20T04:20:55.241Z,14.80
2022-12-20T04:23:30.578Z,14.57
2022-12-20T04:25:57.180Z,15.52
2022-12-20T04:28:23.779Z,14.75
2022-12-20T04:30:50.442Z,15.40
2022-12-20T04:33:18.188Z,14.10
2022-12-20T04:35:44.914Z,16.05
2022-12-20T04:38:11.573Z,14.73
2022-12-20T04:40:38.393Z,14.80
2022-12-20T04:43:05.087Z,16.70
2022-12-20T04:45:31.713Z,13.98
2022-12-20T04:47:58.322Z,15.00
2022-12-20T04:50:26.039Z,15.10
2022-12-20T04:53:11.271Z,17.00
2022-12-20T04:55:38.956Z,16.38
2022-12-20T04:58:07.866Z,15.93
2022-12-20T05:00:35.237Z,13.90
2022-12-20T05:03:02.233Z,15.55
2022-12-20T05:05:29.137Z,13.98
2022-12-20T05:07:56.304Z,15.30
2022-12-20T05:10:23.094Z,13.45
2022-12-20T05:12:49.865Z,15.90
2022-12-20T05:15:16.518Z,18.58
2022-12-20T05:17:43.213Z,16.73
2022-12-20T05:20:10.571Z,15.90
2022-12-20T05:22:55.994Z,15.10
2022-12-20T05:25:41.216Z,14.68
2022-12-20T05:28:08.130Z,15.43
2022-12-20T05:30:34.828Z,13.77
2022-12-20T05:33:01.458Z,14.63
2022-12-20T05:35:28.160Z,14.65
2022-12-20T05:37:55.061Z,13.52
2022-12-20T05:40:22.338Z,14.30
2022-12-20T05:42:48.944Z,15.40
2022-12-20T05:45:15.600Z,14.15
2022-12-20T05:47:42.201Z,16.33
2022-12-20T05:50:12.343Z,14.45
2022-12-20T05:52:43.380Z,14.68
2022-12-20T05:55:10.670Z,14.55
2022-12-20T05:57:37.309Z,13.95
2022-12-20T06:00:05.946Z,14.75
2022-12-20T06:02:32.807Z,14.15
2022-12-20T06:04:59.706Z,16.80
2022-12-20T06:07:28.978Z,15.02
2022-12-20T06:09:56.523Z,14.77
2022-12-20T06:12:23.450Z,16.40
2022-12-20T06:14:50.383Z,18.65
2022-12-20T06:17:17.337Z,17.33
2022-12-20T06:19:43.982Z,18.92
2022-12-20T06:22:10.795Z,19.92
2022-12-20T06:24:44.308Z,18.83
2022-12-20T06:27:14.506Z,20.20
2022-12-20T06:29:41.185Z,20.85
2022-12-20T06:32:07.883Z,21.35
2022-12-20T06:34:34.570Z,28.10
2022-12-20T06:37:01.192Z,19.35
2022-12-20T06:39:30.989Z,23.02
2022-12-20T06:41:57.590Z,25.48
2022-12-20T06:44:24.186Z,23.95
2022-12-20T06:46:50.912Z,20.45
2022-12-20T06:49:17.615Z,19.63
2022-12-20T06:51:44.250Z,20.85
2022-12-20T06:54:10.874Z,21.77
2022-12-20T06:56:41.263Z,21.10
2022-12-20T06:59:08.411Z,22.63
2022-12-20T07:01:36.378Z,23.40
2022-12-20T07:04:03.243Z,20.85
2022-12-20T07:06:29.879Z,19.98
2022-12-20T07:08:56.558Z,18.73
2022-12-20T07:11:23.206Z,18.90
2022-12-20T07:13:50.333Z,21.00
2022-12-20T07:16:17.020Z,20.10
2022-12-20T07:18:43.710Z,20.45
2022-12-20T07:21:10.389Z,20.33
2022-12-20T07:23:37.094Z,20.45
2022-12-20T07:26:04.053Z,18.00
2022-12-20T07:28:30.873Z,18.40
2022-12-20T07:31:02.058Z,18.40
2022-12-20T07:33:29.334Z,19.88
2022-12-20T07:36:07.890Z,19.65
2022-12-20T07:38:35.675Z,17.50
2022-12-20T07:41:08.286Z,17.63
2022-12-20T07:43:37.830Z,17.15
2022-12-20T07:46:05.658Z,17.60
2022-12-20T07:48:32.982Z,15.40
2022-12-20T07:51:03.169Z,15.98
2022-12-20T07:53:32.960Z,16.08
2022-12-20T07:56:02.687Z,16.33
2022-12-20T07:58:37.151Z,15.45
2022-12-20T08:01:04.986Z,18.13
2022-12-20T08:03:38.902Z,16.60
2022-12-20T08:06:07.255Z,16.23
2022-12-20T08:08:37.954Z,16.17
2022-12-20T08:11:08.545Z,16.35
2022-12-20T08:13:38.165Z,17.33
2022-12-20T08:16:09.266Z,17.38
2022-12-20T08:18:35.911Z,17.50
2022-12-20T08:21:02.554Z,17.50
2022-12-20T08:23:29.231Z,16.48
2022-12-20T08:25:55.820Z,18.73
2022-12-20T08:28:24.003Z,20.77
2022-12-20T08:30:50.776Z,19.55
2022-12-20T08:33:17.660Z,22.20
2022-12-20T08:35:44.304Z,17.55
2022-12-20T08:38:11.146Z,19.95
2022-12-20T08:40:37.780Z,18.40
2022-12-20T08:43:09.951Z,16.13
2022-12-20T08:45:37.143Z,16.58
2022-12-20T08:48:03.920Z,16.83
2022-12-20T08:50:30.505Z,18.35
2022-12-20T08:52:57.153Z,16.63
2022-12-20T08:55:29.179Z,26.15
2022-12-20T08:57:56.326Z,17.38
2022-12-20T09:00:23.032Z,17.60
2022-12-20T09:02:51.862Z,15.85
2022-12-20T09:05:21.816Z,16.73
2022-12-20T09:07:48.422Z,18.23
2022-12-20T09:10:16.205Z,15.45
2022-12-20T09:12:42.829Z,15.18
2022-12-20T09:15:10.522Z,16.45
2022-12-20T09:17:37.184Z,17.27
2022-12-20T09:20:05.277Z,15.32
2022-12-20T09:22:31.858Z,16.88
2022-12-20T09:24:58.457Z,17.52
2022-12-20T09:27:25.052Z,18.35
2022-12-20T09:29:51.958Z,17.52
2022-12-20T09:32:18.552Z,18.45
2022-12-20T09:34:45.181Z,18.27
2022-12-20T09:37:13.845Z,15.82
2022-12-20T09:39:40.487Z,15.60
2022-12-20T09:42:09.230Z,14.45
2022-12-20T09:44:41.383Z,14.20
2022-12-20T09:47:18.115Z,13.40
2022-12-20T09:49:48.315Z,14.30
2022-12-20T09:52:35.116Z,13.60
2022-12-20T09:55:07.805Z,14.70
2022-12-20T09:57:56.396Z,14.30
2022-12-20T10:00:23.710Z,13.52
2022-12-20T10:03:08.249Z,12.85
2022-12-20T10:05:45.961Z,11.80
2022-12-20T10:08:17.332Z,11.63
2022-12-20T10:10:51.220Z,12.40
2022-12-20T10:13:31.763Z,12.10
2022-12-20T10:16:10.044Z,10.60
2022-12-20T10:18:51.221Z,11.95
2022-12-20T10:21:35.851Z,12.52
2022-12-20T10:24:27.631Z,10.18
2022-12-20T10:26:54.389Z,10.73
2022-12-20T10:29:21.247Z,11.32
2022-12-20T10:31:54.603Z,11.73
2022-12-20T10:34:21.180Z,12.93
2022-12-20T10:37:01.423Z,10.50
2022-12-20T10:39:41.957Z,10.60
2022-12-20T10:42:26.018Z,10.13
2022-12-20T10:44:53.708Z,9.07
2022-12-20T10:47:31.859Z,8.37
2022-12-20T10:50:18.139Z,7.77
2022-12-20T10:52:46.064Z,10.80
2022-12-20T10:55:35.562Z,8.70
2022-12-20T10:58:42.214Z,9.63
2022-12-20T11:01:14.154Z,8.43
2022-12-20T11:03:51.626Z,8.30
2022-12-20T11:06:19.799Z,10.73
2022-12-20T11:08:54.002Z,11.00
2022-12-20T11:11:26.465Z,8.13
2022-12-20T11:13:54.001Z,7.43
2022-12-20T11:16:36.997Z,7.33
2022-12-20T11:19:14.284Z,6.63
2022-12-20T11:22:04.913Z,6.70
2022-12-20T11:24:57.842Z,7.10
2022-12-20T11:28:02.159Z,6.90
2022-12-20T11:30:53.990Z,7.23
2022-12-20T11:33:39.343Z,6.63
2022-12-20T11:36:30.670Z,6.50
2022-12-20T11:39:34.907Z,7.03
2022-12-20T11:42:18.216Z,7.20
2022-12-20T11:45:03.288Z,8.03
2022-12-20T11:47:46.569Z,6.97
2022-12-20T11:50:32.126Z,7.30
2022-12-20T11:53:12.808Z,8.47
2022-12-20T11:55:46.669Z,7.67
2022-12-20T11:58:23.580Z,9.97
2022-12-20T12:00:59.952Z,8.60
2022-12-20T12:03:36.891Z,6.37
2022-12-20T12:06:17.801Z,6.73
2022-12-20T12:08:50.399Z,5.83
2022-12-20T12:12:06.159Z,4.30
2022-12-20T12:14:41.650Z,4.90
2022-12-20T12:17:16.919Z,4.73
2022-12-20T12:19:48.553Z,3.63
2022-12-20T12:22:22.752Z,4.20
2022-12-20T12:24:54.315Z,4.63
2022-12-20T12:27:26.803Z,4.57
2022-12-20T12:29:56.328Z,3.90
2022-12-20T12:32:26.346Z,3.60
2022-12-20T12:35:17.646Z,4.13
2022-12-20T12:38:14.897Z,4.00
2022-12-20T12:41:18.869Z,4.23
2022-12-20T12:44:00.296Z,3.40
2022-12-20T12:46:30.282Z,3.80
2022-12-20T12:49:24.308Z,3.70
2022-12-20T12:51:53.968Z,5.73
2022-12-20T12:54:34.640Z,4.17
2022-12-20T12:57:06.684Z,4.73
2022-12-20T12:59:33.274Z,3.53
2022-12-20T13:02:05.747Z,3.20
2022-12-20T13:04:57.647Z,3.47
2022-12-20T13:07:33.266Z,4.07
2022-12-20T13:10:03.187Z,3.87
2022-12-20T13:12:38.890Z,5.63
2022-12-20T13:15:20.821Z,3.67
2022-12-20T13:18:01.775Z,4.63
2022-12-20T13:20:29.531Z,3.73
2022-12-20T13:23:08.493Z,3.97
2022-12-20T13:25:37.942Z,3.40
2022-12-20T13:28:34.101Z,3.60
2022-12-20T13:31:04.852Z,4.00
2022-12-20T13:33:44.438Z,3.20
2022-12-20T13:36:11.013Z,4.50
2022-12-20T13:38:44.781Z,3.70
2022-12-20T13:41:35.821Z,4.07
2022-12-20T13:44:14.926Z,3.40
2022-12-20T13:46:46.839Z,3.70
2022-12-20T13:49:23.827Z,4.50
2022-12-20T13:52:26.705Z,4.83
2022-12-20T13:54:56.788Z,4.53
2022-12-20T13:57:41.515Z,4.37
2022-12-20T14:00:22.361Z,4.10
2022-12-20T14:02:49.597Z,3.40
2022-12-20T14:05:31.027Z,3.70
2022-12-20T14:08:26.948Z,4.30
2022-12-20T14:10:53.934Z,4.10
2022-12-20T14:13:24.257Z,4.50
2022-12-20T14:15:52.010Z,3.90
2022-12-20T14:18:26.498Z,3.80
2022-12-20T14:21:01.825Z,3.43
2022-12-20T14:23:35.759Z,3.60
2022-12-20T14:26:03.597Z,3.37
2022-12-20T14:28:35.429Z,3.30
2022-12-20T14:31:03.699Z,4.50
2022-12-20T14:33:41.139Z,3.47
2022-12-20T14:36:20.876Z,3.90
2022-12-20T14:38:52.480Z,3.43
2022-12-20T14:41:40.833Z,3.77
2022-12-20T14:44:08.108Z,3.53
2022-12-20T14:46:36.604Z,3.70
2022-12-20T14:49:19.136Z,3.50
2022-12-20T14:51:49.475Z,3.30
2022-12-20T14:55:06.988Z,3.53
2022-12-20T14:57:27.092Z,3.17
2022-12-20T15:00:01.979Z,3.43
2022-12-20T15:02:54.859Z,4.10
2022-12-20T15:05:37.625Z,3.43
2022-12-20T15:08:18.215Z,3.80
2022-12-20T15:10:52.707Z,3.50
2022-12-20T15:13:22.089Z,4.10
2022-12-20T15:15:48.966Z,3.67
2022-12-20T15:18:17.616Z,3.03
2022-12-20T15:20:47.451Z,4.60
2022-12-20T15:23:19.784Z,4.77
2022-12-20T15:25:48.483Z,5.10
2022-12-20T15:28:18.376Z,5.20
2022-12-20T15:30:47.371Z,5.77
2022-12-20T15:33:26.362Z,4.77
2022-12-20T15:35:53.891Z,5.57
2022-12-20T15:38:40.589Z,40.50
2022-12-20T15:41:31.261Z,7.67
2022-12-20T15:44:00.419Z,5.33
2022-12-20T15:46:27.702Z,5.77
2022-12-20T15:48:54.608Z,5.60
2022-12-20T15:51:27.328Z,6.93
2022-12-20T15:53:54.060Z,5.67
2022-12-20T15:56:23.410Z,6.07
2022-12-20T15:58:52.521Z,5.93
2022-12-20T16:01:28.267Z,6.03
2022-12-20T16:03:55.269Z,6.00
2022-12-20T16:06:23.074Z,6.67
2022-12-20T16:08:51.975Z,5.67
2022-12-20T16:11:24.411Z,5.70
2022-12-20T16:13:53.032Z,7.30
2022-12-20T16:16:27.205Z,5.50
2022-12-20T16:18:54.100Z,6.90
2022-12-20T16:21:23.419Z,5.80
2022-12-20T16:23:53.503Z,7.70
2022-12-20T16:26:22.885Z,6.60
2022-12-20T16:28:51.250Z,5.60
2022-12-20T16:31:25.010Z,7.10
2022-12-20T16:33:53.394Z,5.87
2022-12-20T16:36:20.009Z,6.57
2022-12-20T16:38:46.716Z,6.40
2022-12-20T16:41:16.843Z,5.20
2022-12-20T16:43:44.767Z,5.27
2022-12-20T16:46:16.714Z,6.13
2022-12-20T16:48:43.775Z,5.43
2022-12-20T16:51:38.742Z,5.13
2022-12-20T16:54:19.691Z,5.43
2022-12-20T16:56:47.664Z,5.07
2022-12-20T16:59:19.804Z,5.30
2022-12-20T17:01:48.831Z,5.57
2022-12-20T17:04:17.763Z,7.50
2022-12-20T17:06:46.648Z,5.53
2022-12-20T17:09:13.702Z,5.97
2022-12-20T17:11:40.389Z,5.63
2022-12-20T17:14:12.331Z,5.63
2022-12-20T17:16:39.982Z,6.17
2022-12-20T17:19:07.004Z,6.13
2022-12-20T17:24:24.982Z,12.83
2022-12-20T17:26:52.118Z,7.30
2022-12-20T17:29:18.820Z,6.90
2022-12-20T17:31:47.759Z,11.50
2022-12-20T17:34:25.454Z,5.17
2022-12-20T17:36:54.578Z,9.50
2022-12-20T17:39:21.846Z,8.27
2022-12-20T17:41:51.909Z,6.33
2022-12-20T17:44:24.360Z,6.20
2022-12-20T17:46:51.595Z,5.93
2022-12-20T17:49:18.278Z,4.83
2022-12-20T17:51:45.570Z,4.47
2022-12-20T17:54:26.525Z,4.20
2022-12-20T17:56:54.068Z,7.90
2022-12-20T17:59:21.719Z,11.70
2022-12-20T18:01:48.755Z,10.50
2022-12-20T18:04:16.685Z,10.47
2022-12-20T18:06:45.470Z,8.90
2022-12-20T18:09:19.270Z,6.83
2022-12-20T18:11:46.396Z,7.47
2022-12-20T18:14:13.617Z,6.83
2022-12-20T18:16:40.767Z,4.50
2022-12-20T18:19:14.410Z,6.10
2022-12-20T18:21:41.655Z,5.77
2022-12-20T18:24:11.595Z,6.23
2022-12-20T18:26:38.197Z,16.60
2022-12-20T18:29:08.075Z,19.47
2022-12-20T18:31:35.437Z,15.93
2022-12-20T18:34:03.351Z,8.17
2022-12-20T18:36:34.335Z,7.60
2022-12-20T18:39:02.961Z,7.70
2022-12-20T18:41:30.607Z,7.50
2022-12-20T18:43:59.930Z,9.80
2022-12-20T18:46:28.900Z,8.13
2022-12-20T18:48:58.748Z,15.10
2022-12-20T18:51:29.050Z,13.20
2022-12-20T18:53:57.355Z,6.50
2022-12-20T18:56:26.290Z,4.50
2022-12-20T18:58:55.440Z,4.00
2022-12-20T19:01:24.906Z,5.47
2022-12-20T19:03:52.855Z,4.67
2022-12-20T19:06:20.039Z,5.90
2022-12-20T19:08:47.389Z,7.20
2022-12-20T19:11:16.862Z,6.20
2022-12-20T19:13:43.996Z,5.13
2022-12-20T19:16:16.001Z,5.80
2022-12-20T19:18:43.691Z,4.00
2022-12-20T19:21:21.576Z,3.30
2022-12-20T19:23:51.199Z,4.43
2022-12-20T19:26:19.472Z,4.30
2022-12-20T19:28:46.986Z,3.57
2022-12-20T19:31:21.708Z,4.53
2022-12-20T19:33:51.224Z,3.83
2022-12-20T19:36:24.996Z,5.60
2022-12-20T19:38:55.677Z,4.33
2022-12-20T19:41:23.562Z,4.77
2022-12-20T19:43:51.615Z,7.20
2022-12-20T19:46:25.118Z,6.60
2022-12-20T19:48:55.203Z,7.30
2022-12-20T19:51:22.852Z,6.20
2022-12-20T19:53:51.686Z,5.80
2022-12-20T19:56:21.581Z,5.90
2022-12-20T19:58:50.492Z,8.17
2022-12-20T20:01:18.015Z,14.90
2022-12-20T20:03:45.580Z,15.83
2022-12-20T20:06:19.333Z,15.07
2022-12-20T20:08:48.089Z,11.37
2022-12-20T20:11:15.038Z,6.53
2022-12-20T20:13:41.914Z,4.80
2022-12-20T20:16:10.096Z,5.77
2022-12-20T20:18:40.230Z,6.00
2022-12-20T20:21:13.978Z,4.40
2022-12-20T20:23:41.021Z,4.80
2022-12-20T20:26:10.929Z,4.47
2022-12-20T20:28:44.436Z,4.70
2022-12-20T20:31:14.227Z,4.83
2022-12-20T20:33:41.785Z,4.73
2022-12-20T20:36:12.200Z,3.80
2022-12-20T20:38:38.926Z,4.70
2022-12-20T20:41:05.693Z,4.43
2022-12-20T20:43:36.614Z,4.33
2022-12-20T20:46:06.397Z,5.10
2022-12-20T20:48:33.269Z,4.70
2022-12-20T20:51:00.061Z,4.37
2022-12-20T20:53:33.163Z,4.30
2022-12-20T20:56:01.655Z,4.17
2022-12-20T20:58:29.981Z,4.40
2022-12-20T21:01:01.402Z,4.67
2022-12-20T21:03:30.453Z,4.50
2022-12-20T21:06:34.976Z,4.10
2022-12-20T21:08:44.175Z,4.93
2022-12-20T21:11:11.408Z,3.83
2022-12-20T21:13:39.080Z,3.93
2022-12-20T21:16:11.420Z,4.40
2022-12-20T21:18:38.567Z,5.13
2022-12-20T21:21:14.370Z,4.30
2022-12-20T21:23:46.087Z,5.23
2022-12-20T21:26:14.238Z,5.87
2022-12-20T21:28:41.385Z,4.63
2022-12-20T21:31:11.427Z,5.53
2022-12-20T21:33:40.895Z,4.60
2022-12-20T21:36:16.290Z,5.23
2022-12-20T21:38:48.083Z,5.60
2022-12-20T21:41:14.844Z,6.20
2022-12-20T21:43:41.505Z,5.57
2022-12-20T21:46:11.174Z,5.00
2022-12-20T21:48:39.261Z,5.07
2022-12-20T21:51:10.011Z,5.30
2022-12-20T21:53:45.972Z,5.00
2022-12-20T21:56:12.967Z,5.10
2022-12-20T21:58:39.674Z,4.80
2022-12-20T22:01:10.165Z,5.20
2022-12-20T22:03:38.162Z,5.03
2022-12-20T22:06:05.402Z,5.80
2022-12-20T22:08:32.853Z,8.07
2022-12-20T22:11:05.682Z,5.37
2022-12-20T22:13:39.043Z,5.30
2022-12-20T22:16:08.705Z,5.60
2022-12-20T22:18:35.965Z,5.50
2022-12-20T22:21:07.863Z,5.53
2022-12-20T22:23:34.605Z,5.30
2022-12-20T22:26:06.347Z,5.37
2022-12-20T22:28:33.260Z,5.90
2022-12-20T22:31:07.513Z,5.40
2022-12-20T22:33:34.605Z,5.67
2022-12-20T22:36:08.175Z,5.93
2022-12-20T22:38:35.508Z,5.10
2022-12-20T22:41:16.660Z,5.43
2022-12-20T22:43:44.657Z,6.10
2022-12-20T22:46:12.654Z,5.93
2022-12-20T22:48:40.141Z,4.73
2022-12-20T22:51:12.723Z,4.90
2022-12-20T22:53:40.182Z,5.40
2022-12-20T22:56:07.551Z,4.23
2022-12-20T22:58:35.415Z,4.23
2022-12-20T23:01:04.708Z,4.70
2022-12-20T23:03:32.373Z,5.23
2022-12-20T23:06:01.553Z,5.10
2022-12-20T23:08:30.902Z,5.30
2022-12-20T23:11:16.420Z,5.67
2022-12-20T23:14:02.501Z,5.70
2022-12-20T23:16:29.914Z,5.20
2022-12-20T23:18:58.065Z,6.13
2022-12-20T23:21:43.725Z,4.53
2022-12-20T23:24:11.635Z,5.37
2022-12-20T23:26:40.401Z,4.20
2022-12-20T23:29:08.350Z,4.43
2022-12-20T23:31:35.320Z,4.50
2022-12-20T23:34:02.508Z,4.47
2022-12-20T23:36:30.000Z,4.50
2022-12-20T23:38:56.892Z,4.67
2022-12-20T23:41:23.789Z,4.10
2022-12-20T23:43:50.659Z,4.97
2022-12-20T23:46:19.435Z,4.90
2022-12-20T23:48:46.100Z,5.43
2022-12-20T23:51:13.297Z,4.40
2022-12-20T23:53:40.101Z,4.90
2022-12-20T23:56:12.211Z,4.57
2022-12-20T23:58:39.251Z,4.93
